Time;durP1;ratioP1;P1;durP2;ratioP2;P2;SDS_P1;SDS_P2;PMS_P1;PMS_P2;Temp;Humidity;BMP_temperature;BMP_pressure;BME280_temperature;BME280_humidity;BME280_pressure;Samples;Min_cycle;Max_cycle;Signal;HPM_P1;HPM_P2
2022/05/31 00:00:39;;;;;;;27.20;2.47;;;38.10;17.90;;;;;;5049795;28;20065;-65
2022/05/31 00:03:07;;;;;;;38.47;3.45;;;38.30;18.20;;;;;;5046835;28;20077;-66
2022/05/31 00:05:33;;;;;;;187.63;9.95;;;38.30;17.50;;;;;;5031479;28;20598;-67
2022/05/31 00:08:00;;;;;;;26.83;3.00;;;38.10;17.20;;;;;;5050869;28;20037;-67
2022/05/31 00:10:26;;;;;;;21.83;2.95;;;38.00;16.80;;;;;;5049221;28;20099;-66
2022/05/31 00:12:53;;;;;;;28.23;3.30;;;38.00;18.10;;;;;;5048948;28;20051;-68
2022/05/31 00:15:20;;;;;;;21.52;2.53;;;38.00;17.30;;;;;;5047935;28;20473;-66
2022/05/31 00:17:47;;;;;;;18.90;2.58;;;38.00;17.10;;;;;;5048796;28;20737;-66
2022/05/31 00:20:14;;;;;;;12.20;2.65;;;37.90;17.30;;;;;;5047038;28;20055;-66
2022/05/31 00:22:43;;;;;;;28.42;2.42;;;37.80;17.70;;;;;;5048634;28;20047;-68
2022/05/31 00:25:12;;;;;;;10.05;2.03;;;37.80;17.70;;;;;;5048964;28;20102;-66
2022/05/31 00:27:39;;;;;;;16.60;2.55;;;37.80;17.60;;;;;;5052409;28;20044;-66
2022/05/31 00:30:07;;;;;;;18.25;2.58;;;37.70;17.60;;;;;;5052536;28;20033;-58
2022/05/31 00:32:37;;;;;;;15.65;2.22;;;37.60;17.80;;;;;;5090783;28;20046;-65
2022/05/31 00:35:09;;;;;;;38.40;5.32;;;37.50;18.60;;;;;;5078437;28;20055;-64
2022/05/31 00:37:36;;;;;;;16.13;2.30;;;37.50;18.10;;;;;;5071277;28;20028;-64
2022/05/31 00:40:03;;;;;;;21.85;2.50;;;37.60;18.90;;;;;;5070465;28;20075;-64
2022/05/31 00:42:47;;;;;;;47.05;4.22;;;37.50;17.90;;;;;;5089646;28;20067;-64
2022/05/31 00:45:14;;;;;;;17.30;2.67;;;37.40;18.10;;;;;;5087211;28;20077;-64
2022/05/31 00:47:40;;;;;;;19.67;2.78;;;37.30;18.00;;;;;;5069909;28;20508;-67
2022/05/31 00:50:09;;;;;;;23.33;2.78;;;37.30;17.90;;;;;;5072447;28;20042;-66
2022/05/31 00:53:03;;;;;;;238.65;10.75;;;37.20;18.40;;;;;;5070893;28;20501;-66
2022/05/31 00:55:42;;;;;;;23.80;3.15;;;37.20;19.20;;;;;;5071702;28;20046;-67
2022/05/31 00:58:34;;;;;;;19.10;3.00;;;37.20;18.50;;;;;;5065099;28;20051;-68
2022/05/31 01:01:08;;;;;;;30.02;4.00;;;37.20;18.30;;;;;;5097165;28;20068;-67
2022/05/31 01:03:42;;;;;;;48.58;4.03;;;37.00;18.70;;;;;;5072009;28;20039;-65
2022/05/31 01:06:12;;;;;;;29.90;3.92;;;36.70;18.80;;;;;;5074365;28;20511;-67
2022/05/31 01:08:44;;;;;;;25.80;4.97;;;36.50;18.70;;;;;;5087402;28;20557;-65
2022/05/31 01:11:17;;;;;;;46.63;5.85;;;36.40;18.70;;;;;;5070145;28;20044;-63
2022/05/31 01:13:44;;;;;;;41.28;4.50;;;36.40;19.00;;;;;;5069590;28;20481;-64
2022/05/31 01:16:14;;;;;;;39.53;4.07;;;36.30;18.80;;;;;;5095231;28;20104;-67
2022/05/31 01:18:40;;;;;;;50.42;5.35;;;36.00;18.60;;;;;;5071294;28;20506;-66
2022/05/31 01:21:08;;;;;;;55.05;5.82;;;35.80;18.70;;;;;;5073562;22;20156;-70
2022/05/31 01:24:03;;;;;;;32.22;6.97;;;35.60;18.60;;;;;;4984905;28;20061;-63
2022/05/31 01:26:59;;;;;;;35.30;4.72;;;35.40;18.90;;;;;;5024716;28;20067;-66
2022/05/31 01:29:36;;;;;;;52.50;5.10;;;35.10;18.50;;;;;;5027998;28;20060;-66
2022/05/31 01:32:13;;;;;;;35.03;3.58;;;35.00;18.50;;;;;;5061877;28;20045;-66
2022/05/31 01:34:55;;;;;;;83.43;5.65;;;34.80;18.60;;;;;;5024435;28;20061;-64
2022/05/31 01:37:54;;;;;;;44.88;5.57;;;34.70;18.70;;;;;;5010999;28;21011;-66
2022/05/31 01:40:52;;;;;;;38.30;4.63;;;34.60;18.80;;;;;;5034849;28;20144;-64
2022/05/31 01:43:18;;;;;;;65.28;5.90;;;34.50;18.60;;;;;;5027064;28;20058;-67
2022/05/31 01:45:58;;;;;;;84.18;7.53;;;34.50;18.50;;;;;;5044463;28;20545;-65
2022/05/31 01:48:27;;;;;;;26.83;3.20;;;34.40;18.20;;;;;;5009505;28;20056;-68
2022/05/31 01:50:54;;;;;;;25.98;3.58;;;34.20;18.10;;;;;;4994461;28;20077;-66
2022/05/31 01:53:20;;;;;;;21.73;2.80;;;34.00;18.30;;;;;;5028986;28;20085;-66
2022/05/31 01:55:48;;;;;;;20.77;3.47;;;34.00;18.10;;;;;;5010595;28;20026;-65
2022/05/31 01:58:27;;;;;;;24.58;6.65;;;33.80;18.20;;;;;;5009939;28;20583;-66
2022/05/31 02:00:53;;;;;;;37.55;4.68;;;33.50;18.20;;;;;;5009314;28;20076;-64
2022/05/31 02:03:21;;;;;;;54.90;5.40;;;33.40;17.90;;;;;;5030093;28;20068;-62
2022/05/31 02:05:51;;;;;;;31.63;4.63;;;33.20;17.90;;;;;;5028276;28;20072;-64
2022/05/31 02:08:23;;;;;;;82.93;5.85;;;33.10;18.20;;;;;;4994610;28;20087;-63
2022/05/31 02:10:50;;;;;;;30.73;3.80;;;32.90;18.30;;;;;;4993249;28;20103;-65
2022/05/31 02:13:18;;;;;;;25.17;3.92;;;32.80;18.60;;;;;;5011038;28;20062;-65
2022/05/31 02:15:45;;;;;;;21.00;3.33;;;32.70;18.80;;;;;;5010809;28;20062;-66
2022/05/31 02:18:14;;;;;;;27.17;3.47;;;32.70;19.10;;;;;;4994323;28;20104;-66
2022/05/31 02:20:41;;;;;;;23.10;3.47;;;32.60;19.30;;;;;;5049544;28;20071;-64
2022/05/31 02:23:08;;;;;;;24.52;3.30;;;32.50;19.40;;;;;;5049182;28;20101;-65
2022/05/31 02:25:35;;;;;;;29.67;3.53;;;32.40;19.70;;;;;;5061777;28;20164;-66
2022/05/31 02:28:02;;;;;;;31.88;3.67;;;32.20;19.70;;;;;;5048383;28;20072;-63
2022/05/31 02:30:28;;;;;;;28.63;3.53;;;32.10;19.60;;;;;;5030422;28;20550;-65
2022/05/31 02:32:55;;;;;;;26.95;3.83;;;32.00;19.50;;;;;;5046304;28;20437;-63
2022/05/31 02:35:21;;;;;;;24.52;3.50;;;31.90;19.50;;;;;;5047835;28;20541;-70
2022/05/31 02:38:42;;;;;;;32.83;4.30;;;31.70;19.20;;;;;;5091257;27;20951;-73
2022/05/31 02:41:09;;;;;;;25.67;3.13;;;31.70;19.60;;;;;;5088048;28;20399;-65
2022/05/31 02:43:36;;;;;;;22.85;2.90;;;31.60;19.60;;;;;;5087600;28;20081;-70
2022/05/31 02:46:03;;;;;;;31.05;3.80;;;31.50;19.10;;;;;;5103890;28;20469;-69
2022/05/31 02:48:30;;;;;;;26.33;3.60;;;31.30;18.70;;;;;;5086151;28;20079;-67
2022/05/31 02:50:57;;;;;;;21.70;3.15;;;31.20;18.70;;;;;;5090919;28;20069;-66
2022/05/31 02:53:24;;;;;;;19.20;3.42;;;31.10;18.60;;;;;;5089563;28;20582;-68
2022/05/31 02:55:58;;;;;;;21.67;3.20;;;31.00;18.60;;;;;;5097337;28;20081;-67
2022/05/31 02:58:45;;;;;;;26.45;2.67;;;31.00;18.80;;;;;;5100271;28;20167;-66
2022/05/31 03:01:32;;;;;;;;;;;30.80;18.80;;;;;;5103129;28;20088;-66
2022/05/31 03:03:59;;;;;;;20.20;2.83;;;30.80;19.10;;;;;;5074182;28;20019;-68
2022/05/31 03:06:27;;;;;;;21.45;2.55;;;30.70;19.20;;;;;;5101551;28;20468;-68
2022/05/31 03:08:53;;;;;;;28.38;3.00;;;30.60;19.20;;;;;;5098852;28;20159;-66
2022/05/31 03:11:25;;;;;;;13.40;2.55;;;30.60;19.20;;;;;;5102655;28;20067;-67
2022/05/31 03:13:59;;;;;;;16.65;2.55;;;30.60;19.40;;;;;;5090598;28;20065;-67
2022/05/31 03:16:26;;;;;;;16.05;2.80;;;30.50;19.40;;;;;;5090470;28;20111;-66
2022/05/31 03:19:04;;;;;;;10.63;2.35;;;30.50;19.50;;;;;;5089659;28;20151;-67
2022/05/31 03:21:57;;;;;;;18.88;2.53;;;30.40;19.50;;;;;;5086442;28;20155;-67
2022/05/31 03:24:29;;;;;;;15.38;2.55;;;30.40;19.60;;;;;;5080184;28;20513;-66
2022/05/31 03:27:00;;;;;;;20.08;2.10;;;30.30;19.70;;;;;;5086152;28;20095;-70
2022/05/31 03:29:26;;;;;;;15.88;2.25;;;30.20;19.70;;;;;;5090073;28;20532;-71
2022/05/31 03:31:53;;;;;;;20.27;2.47;;;30.20;19.80;;;;;;5086897;28;20090;-70
2022/05/31 03:34:19;;;;;;;14.63;2.33;;;30.20;20.00;;;;;;5086958;28;20109;-70
2022/05/31 03:36:46;;;;;;;11.50;2.08;;;30.10;20.10;;;;;;5089501;28;20556;-69
2022/05/31 03:39:12;;;;;;;18.67;3.35;;;30.10;20.20;;;;;;5088767;28;20076;-70
2022/05/31 03:41:39;;;;;;;15.95;2.22;;;30.10;20.20;;;;;;5089156;28;20082;-69
2022/05/31 03:44:06;;;;;;;20.70;3.15;;;30.10;20.40;;;;;;5088004;28;20072;-71
2022/05/31 03:46:34;;;;;;;14.57;2.10;;;30.00;20.40;;;;;;5088482;28;20097;-69
2022/05/31 03:49:00;;;;;;;16.48;2.03;;;29.90;20.50;;;;;;5079887;28;20082;-69
2022/05/31 03:51:27;;;;;;;14.48;2.38;;;29.90;20.40;;;;;;5073533;28;20169;-70
2022/05/31 03:53:53;;;;;;;11.65;3.22;;;29.90;20.20;;;;;;5071603;28;20033;-68
2022/05/31 03:56:19;;;;;;;11.55;3.50;;;29.80;20.20;;;;;;5073126;28;20162;-69
2022/05/31 03:58:46;;;;;;;21.02;3.63;;;29.80;20.20;;;;;;5074686;28;20593;-69
2022/05/31 04:01:12;;;;;;;16.15;3.60;;;29.80;20.30;;;;;;5074023;28;20464;-67
2022/05/31 04:03:39;;;;;;;13.80;2.65;;;29.70;20.20;;;;;;5077204;28;20066;-68
2022/05/31 04:06:05;;;;;;;12.55;3.47;;;29.70;20.30;;;;;;5074122;28;20118;-69
2022/05/31 04:08:32;;;;;;;23.98;7.80;;;29.70;20.20;;;;;;5075513;28;20144;-66
2022/05/31 04:10:59;;;;;;;15.70;2.80;;;29.60;20.30;;;;;;5057874;28;20113;-69
2022/05/31 04:13:27;;;;;;;20.45;4.03;;;29.60;20.20;;;;;;5075055;28;21585;-70
2022/05/31 04:16:05;;;;;;;11.35;2.72;;;29.50;20.10;;;;;;5078114;28;20139;-70
2022/05/31 04:18:31;;;;;;;15.13;3.35;;;29.50;20.10;;;;;;5060853;28;20107;-65
2022/05/31 04:21:08;;;;;;;24.83;2.95;;;29.40;19.80;;;;;;5077547;28;20606;-65
2022/05/31 04:26:19;;;;;;;13.98;2.92;;;29.40;19.80;;;;;;5073071;28;20096;-67
2022/05/31 04:28:45;;;;;;;13.23;2.45;;;29.40;19.80;;;;;;5072269;28;20110;-67
2022/05/31 04:31:12;;;;;;;18.20;2.85;;;29.40;19.90;;;;;;5072769;28;20158;-65
2022/05/31 04:33:39;;;;;;;23.80;2.95;;;29.40;19.90;;;;;;5073558;28;20090;-67
2022/05/31 04:36:17;;;;;;;28.38;3.03;;;29.40;20.00;;;;;;5076875;28;20101;-64
2022/05/31 04:38:46;;;;;;;26.48;2.10;;;29.40;20.00;;;;;;5064477;28;20176;-65
2022/05/31 04:41:21;;;;;;;19.70;2.50;;;29.30;19.80;;;;;;5080910;28;20065;-66
2022/05/31 04:43:48;;;;;;;12.02;2.72;;;29.30;19.90;;;;;;5072780;28;20112;-66
2022/05/31 04:46:17;;;;;;;15.52;2.13;;;29.30;20.00;;;;;;5072105;28;20190;-66
2022/05/31 04:48:45;;;;;;;34.70;3.33;;;29.30;20.00;;;;;;5080710;28;20671;-65
2022/05/31 04:51:13;;;;;;;10.52;2.13;;;29.20;19.90;;;;;;5056078;28;20067;-62
2022/05/31 04:53:41;;;;;;;10.80;2.10;;;29.10;19.70;;;;;;5073503;28;20119;-67
2022/05/31 04:56:10;;;;;;;9.55;1.80;;;29.10;19.80;;;;;;5081117;28;20068;-65
2022/05/31 04:58:38;;;;;;;11.73;2.35;;;29.10;19.80;;;;;;5079906;28;20167;-67
2022/05/31 05:01:09;;;;;;;11.25;2.28;;;29.10;20.00;;;;;;5080058;28;20087;-64
2022/05/31 05:03:36;;;;;;;17.25;2.67;;;29.10;19.80;;;;;;5058138;28;20068;-66
2022/05/31 05:06:07;;;;;;;24.33;3.10;;;29.00;20.00;;;;;;5078557;28;20062;-67
2022/05/31 05:08:36;;;;;;;48.33;4.80;;;29.00;20.20;;;;;;5072423;28;20151;-64
2022/05/31 05:11:09;;;;;;;45.53;5.28;;;29.00;20.50;;;;;;5073057;28;20067;-64
2022/05/31 05:13:36;;;;;;;52.92;5.22;;;28.90;20.70;;;;;;5072729;28;20083;-64
2022/05/31 05:16:03;;;;;;;46.58;5.05;;;28.90;20.80;;;;;;5056984;28;20122;-64
2022/05/31 05:18:30;;;;;;;38.30;4.10;;;28.80;20.90;;;;;;5073675;28;20556;-67
2022/05/31 05:20:56;;;;;;;38.13;5.47;;;28.70;20.90;;;;;;5075134;28;20105;-65
2022/05/31 05:23:23;;;;;;;45.08;5.47;;;28.60;20.80;;;;;;5076879;28;20076;-64
2022/05/31 05:25:54;;;;;;;84.78;42.75;;;28.70;21.00;;;;;;5075519;28;20079;-63
2022/05/31 05:31:06;;;;;;;45.00;4.43;;;28.60;21.20;;;;;;5071542;28;20593;-65
2022/05/31 05:33:33;;;;;;;49.40;3.55;;;28.50;21.20;;;;;;5054974;28;20075;-63
2022/05/31 05:35:59;;;;;;;33.28;3.47;;;28.50;21.30;;;;;;5055442;28;20598;-64
2022/05/31 05:38:25;;;;;;;53.53;4.85;;;28.40;21.10;;;;;;5070222;28;20112;-63
2022/05/31 05:40:52;;;;;;;47.88;4.15;;;28.40;21.10;;;;;;5072623;28;20070;-63
2022/05/31 05:43:18;;;;;;;33.17;3.30;;;28.30;21.20;;;;;;5070314;28;20565;-63
2022/05/31 05:45:44;;;;;;;31.08;4.05;;;28.30;21.20;;;;;;5071043;28;20075;-63
2022/05/31 05:48:11;;;;;;;24.80;3.08;;;28.20;21.10;;;;;;5054194;28;20075;-64
2022/05/31 05:50:38;;;;;;;29.63;3.55;;;28.20;21.10;;;;;;5071233;28;20121;-63
2022/05/31 05:53:07;;;;;;;36.70;3.42;;;28.10;21.10;;;;;;5071027;28;20137;-63
2022/05/31 05:55:36;;;;;;;24.35;2.72;;;28.10;21.30;;;;;;5071617;28;20107;-65
2022/05/31 05:58:03;;;;;;;31.67;3.67;;;28.00;21.20;;;;;;5069848;28;20121;-63
2022/05/31 06:00:31;;;;;;;42.28;3.20;;;28.00;21.20;;;;;;5071604;28;20068;-63
2022/05/31 06:03:12;;;;;;;35.08;3.67;;;28.00;21.30;;;;;;5070530;28;20582;-63
2022/05/31 06:05:39;;;;;;;31.23;2.85;;;27.90;21.20;;;;;;5066775;28;20071;-64
2022/05/31 06:08:11;;;;;;;37.10;3.15;;;27.90;21.30;;;;;;5068935;28;20072;-63
2022/05/31 06:11:00;;;;;;;44.65;3.78;;;27.80;21.30;;;;;;5053461;28;20103;-64
2022/05/31 06:13:32;;;;;;;40.42;3.22;;;27.80;21.40;;;;;;5037138;28;20084;-63
2022/05/31 06:15:58;;;;;;;33.80;3.05;;;27.70;21.50;;;;;;5070875;28;20163;-63
2022/05/31 06:18:33;;;;;;;24.25;3.08;;;27.70;21.40;;;;;;5067385;28;20096;-64
2022/05/31 06:21:02;;;;;;;33.17;3.40;;;27.70;21.40;;;;;;5071643;28;20170;-64
2022/05/31 06:23:29;;;;;;;31.42;2.95;;;27.60;21.30;;;;;;5068055;28;20160;-63
2022/05/31 06:25:57;;;;;;;28.50;2.92;;;27.70;21.50;;;;;;5068876;28;20110;-63
2022/05/31 06:28:24;;;;;;;23.65;2.88;;;27.60;21.40;;;;;;5056865;28;20103;-64
2022/05/31 06:30:50;;;;;;;29.00;2.88;;;27.60;21.70;;;;;;5070089;28;20621;-63
2022/05/31 06:33:16;;;;;;;17.60;2.70;;;27.60;22.00;;;;;;5070026;28;20449;-63
2022/05/31 06:35:43;;;;;;;25.13;2.63;;;27.60;21.50;;;;;;5071629;28;20079;-62
2022/05/31 06:38:09;;;;;;;21.85;2.90;;;27.50;21.50;;;;;;5069519;28;20110;-62
2022/05/31 06:40:37;;;;;;;22.70;2.60;;;27.40;21.40;;;;;;5051003;28;20138;-63
2022/05/31 06:43:04;;;;;;;12.55;2.08;;;27.40;21.50;;;;;;5069037;28;20076;-63
2022/05/31 06:45:30;;;;;;;12.00;2.13;;;27.40;21.50;;;;;;5074024;28;20110;-62
2022/05/31 06:47:57;;;;;;;24.95;2.30;;;27.40;21.40;;;;;;5070415;28;20145;-63
2022/05/31 06:50:23;;;;;;;18.02;2.10;;;27.40;21.30;;;;;;5051371;28;21558;-61
2022/05/31 06:58:19;;;;;;;10.02;1.88;;;27.30;21.40;;;;;;5072199;28;20107;-63
2022/05/31 07:00:45;;;;;;;9.63;1.75;;;27.30;21.40;;;;;;5067944;28;20074;-62
2022/05/31 07:03:12;;;;;;;5.10;1.75;;;27.30;21.40;;;;;;5051351;28;20096;-63
2022/05/31 07:05:39;;;;;;;8.38;1.85;;;27.30;21.50;;;;;;5069212;28;20122;-63
2022/05/31 07:08:05;;;;;;;14.60;2.20;;;27.20;21.40;;;;;;5069751;28;20103;-63
2022/05/31 07:10:31;;;;;;;10.77;2.60;;;27.10;21.50;;;;;;5073349;28;20084;-62
2022/05/31 07:12:58;;;;;;;8.20;1.70;;;27.20;21.50;;;;;;5078750;28;20080;-63
2022/05/31 07:15:25;;;;;;;12.60;2.40;;;27.10;21.50;;;;;;5078180;28;20503;-63
2022/05/31 07:17:52;;;;;;;10.77;2.60;;;27.10;21.60;;;;;;5071914;28;20108;-64
2022/05/31 07:20:18;;;;;;;9.77;2.15;;;27.00;21.60;;;;;;5069955;28;20568;-64
2022/05/31 07:22:44;;;;;;;11.32;2.50;;;27.00;21.70;;;;;;5070321;28;20127;-63
2022/05/31 07:25:11;;;;;;;19.00;2.65;;;26.90;21.70;;;;;;5071798;28;20075;-63
2022/05/31 07:27:38;;;;;;;8.43;2.25;;;26.90;21.80;;;;;;5060835;28;20095;-64
2022/05/31 07:30:05;;;;;;;15.75;2.72;;;26.90;21.70;;;;;;5075873;28;20076;-63
2022/05/31 07:32:32;;;;;;;17.27;3.10;;;26.90;21.60;;;;;;5074587;28;20072;-64
2022/05/31 07:34:58;;;;;;;8.40;2.10;;;26.80;21.60;;;;;;5056954;28;20072;-64
2022/05/31 07:37:25;;;;;;;10.32;1.60;;;26.80;21.40;;;;;;5072065;28;20194;-63
2022/05/31 07:39:52;;;;;;;4.70;1.08;;;26.80;21.20;;;;;;5057121;28;20560;-64
2022/05/31 07:42:18;;;;;;;5.35;1.27;;;26.90;20.80;;;;;;5074841;28;20589;-64
2022/05/31 07:44:44;;;;;;;5.53;1.13;;;26.90;20.80;;;;;;5074441;28;20432;-69
2022/05/31 07:47:11;;;;;;;5.72;1.40;;;27.00;20.80;;;;;;5075713;28;20144;-67
2022/05/31 07:49:37;;;;;;;4.95;1.10;;;27.10;20.80;;;;;;5073127;28;20098;-67
2022/05/31 07:52:08;;;;;;;6.90;1.30;;;27.30;20.60;;;;;;5054896;28;20498;-68
2022/05/31 07:54:34;;;;;;;7.15;1.10;;;27.40;20.60;;;;;;5067706;28;20072;-67
2022/05/31 07:57:05;;;;;;;3.42;0.93;;;27.50;20.50;;;;;;5073224;28;20119;-67
2022/05/31 07:59:33;;;;;;;2.85;1.00;;;27.50;20.60;;;;;;5074165;28;20068;-67
2022/05/31 08:02:00;;;;;;;1.90;0.90;;;27.60;20.40;;;;;;5074595;28;20798;-68
2022/05/31 08:04:27;;;;;;;5.85;1.15;;;27.70;20.40;;;;;;5073259;28;20076;-68
2022/05/31 08:06:57;;;;;;;3.65;1.05;;;27.70;20.40;;;;;;5071348;28;20098;-68
2022/05/31 08:09:24;;;;;;;4.05;1.00;;;27.60;20.50;;;;;;5074154;28;20944;-68
2022/05/31 08:11:50;;;;;;;5.25;1.10;;;27.60;20.50;;;;;;5073641;28;20124;-68
2022/05/31 08:14:16;;;;;;;3.22;0.90;;;27.50;20.60;;;;;;5073094;28;20072;-68
2022/05/31 08:16:42;;;;;;;6.80;1.40;;;27.40;20.80;;;;;;5056543;28;20094;-68
2022/05/31 08:19:09;;;;;;;8.95;1.20;;;27.40;20.80;;;;;;5068923;28;20072;-69
2022/05/31 08:21:35;;;;;;;6.20;1.25;;;27.30;20.90;;;;;;5075400;28;20080;-68
2022/05/31 08:24:04;;;;;;;6.90;1.40;;;27.30;21.00;;;;;;5073255;28;20079;-67
2022/05/31 08:26:30;;;;;;;3.53;1.23;;;27.20;21.10;;;;;;5070522;28;20083;-68
2022/05/31 08:28:57;;;;;;;3.15;1.00;;;27.20;21.30;;;;;;5075087;28;20079;-68
2022/05/31 08:31:31;;;;;;;6.88;1.20;;;27.10;21.30;;;;;;5072550;28;20087;-68
2022/05/31 08:33:58;;;;;;;2.17;1.10;;;27.20;21.40;;;;;;5067587;28;20445;-69
2022/05/31 08:36:25;;;;;;;6.78;1.50;;;27.30;21.50;;;;;;5054978;28;20092;-68
2022/05/31 08:38:51;;;;;;;3.92;1.52;;;27.30;21.50;;;;;;5071549;28;20080;-68
2022/05/31 08:41:52;;;;;;;7.82;1.55;;;27.20;21.50;;;;;;5055230;28;20099;-67
2022/05/31 08:44:36;;;;;;;3.90;1.38;;;27.20;21.80;;;;;;5070864;28;20460;-68
2022/05/31 08:47:17;;;;;;;4.40;1.52;;;27.10;21.60;;;;;;5071123;28;20514;-67
2022/05/31 08:53:26;;;;;;;4.50;1.63;;;26.80;21.50;;;;;;5027890;28;20147;-69
2022/05/31 08:59:08;;;;;;;8.25;1.38;;;26.70;21.80;;;;;;5028941;28;20150;-68
2022/05/31 09:01:46;;;;;;;3.78;1.30;;;26.60;21.70;;;;;;5011173;28;20125;-68
2022/05/31 09:04:19;;;;;;;6.97;1.02;;;26.60;21.80;;;;;;5027687;28;20084;-68
2022/05/31 09:07:03;;;;;;;4.00;1.10;;;26.50;21.70;;;;;;5014907;28;20220;-68
2022/05/31 09:09:59;;;;;;;4.22;1.30;;;26.50;21.80;;;;;;5030050;28;20192;-69
2022/05/31 09:12:28;;;;;;;2.63;1.05;;;26.60;22.00;;;;;;5027349;28;20127;-68
2022/05/31 09:15:13;;;;;;;3.65;1.00;;;26.50;21.70;;;;;;5011668;28;20135;-68
2022/05/31 09:17:57;;;;;;;3.63;1.10;;;26.50;21.80;;;;;;5030397;28;20101;-69
2022/05/31 09:20:32;;;;;;;3.60;0.90;;;26.40;21.80;;;;;;5010223;28;20088;-67
2022/05/31 09:22:59;;;;;;;2.67;1.05;;;26.40;21.80;;;;;;4994779;28;20072;-68
2022/05/31 09:25:27;;;;;;;3.35;1.17;;;26.30;21.90;;;;;;5011382;28;20077;-69
2022/05/31 09:27:54;;;;;;;4.70;1.10;;;26.10;21.90;;;;;;5086346;28;20615;-68
2022/05/31 09:30:36;;;;;;;2.45;1.05;;;26.10;22.00;;;;;;5055585;28;20102;-67
2022/05/31 09:33:25;;;;;;;2.95;1.00;;;26.00;22.10;;;;;;5072371;28;20405;-68
2022/05/31 09:36:01;;;;;;;6.60;1.00;;;26.00;22.10;;;;;;5072346;28;20617;-69
2022/05/31 09:38:33;;;;;;;5.30;1.10;;;26.00;22.10;;;;;;5067980;28;20118;-69
2022/05/31 09:41:36;;;;;;;5.10;1.35;;;26.00;22.20;;;;;;5071665;28;20198;-68
2022/05/31 09:44:03;;;;;;;4.00;0.88;;;25.90;22.30;;;;;;5048229;28;20440;-68
2022/05/31 09:46:33;;;;;;;1.75;0.93;;;25.80;22.30;;;;;;5076876;28;20075;-68
2022/05/31 09:49:08;;;;;;;3.47;0.88;;;25.90;22.50;;;;;;5071252;28;20082;-69
2022/05/31 09:51:43;;;;;;;6.53;0.95;;;25.80;22.30;;;;;;5054751;28;20083;-68
2022/05/31 09:57:10;;;;;;;4.13;1.00;;;25.70;22.20;;;;;;5071049;28;20189;-68
2022/05/31 09:59:43;;;;;;;3.45;0.98;;;25.70;22.20;;;;;;5053078;28;20071;-69
2022/05/31 10:02:25;;;;;;;3.10;1.08;;;25.60;22.30;;;;;;5069850;28;20087;-68
2022/05/31 10:05:14;;;;;;;3.50;1.00;;;25.50;22.20;;;;;;5073395;28;20067;-68
2022/05/31 10:07:41;;;;;;;5.43;0.90;;;25.40;22.20;;;;;;5073040;28;20075;-70
2022/05/31 10:10:39;;;;;;;5.55;1.02;;;25.50;22.10;;;;;;5076292;28;20088;-68
2022/05/31 10:13:09;;;;;;;4.97;0.90;;;25.40;22.00;;;;;;5060198;28;20083;-68
2022/05/31 10:15:47;;;;;;;5.40;0.90;;;25.40;22.00;;;;;;5075960;28;20082;-69
2022/05/31 10:18:30;;;;;;;8.25;1.20;;;25.50;22.20;;;;;;5071506;28;20425;-68
2022/05/31 10:21:03;;;;;;;2.95;0.80;;;25.50;22.20;;;;;;5069670;28;20091;-69
2022/05/31 10:23:36;;;;;;;2.28;1.10;;;25.50;22.10;;;;;;5068993;28;20559;-70
2022/05/31 10:26:03;;;;;;;5.78;1.60;;;25.40;22.90;;;;;;5053372;28;20082;-72
2022/05/31 10:28:42;;;;;;;6.88;2.20;;;25.40;22.50;;;;;;5071991;28;20071;-70
2022/05/31 10:31:13;;;;;;;6.93;1.75;;;25.40;22.40;;;;;;5072711;28;20078;-69
2022/05/31 10:33:40;;;;;;;5.60;1.25;;;25.30;22.80;;;;;;5069269;28;20083;-70
2022/05/31 10:36:15;;;;;;;5.18;1.38;;;25.30;22.80;;;;;;5070188;28;20067;-70
2022/05/31 10:38:46;;;;;;;5.25;1.38;;;25.20;23.30;;;;;;5055369;28;20114;-70
2022/05/31 10:41:24;;;;;;;4.75;1.13;;;25.10;23.30;;;;;;5072173;28;20075;-70
2022/05/31 10:43:58;;;;;;;2.03;1.05;;;25.10;23.40;;;;;;5072333;28;20076;-70
2022/05/31 10:46:31;;;;;;;3.80;1.10;;;25.00;23.80;;;;;;5070713;28;20537;-71
2022/05/31 10:49:09;;;;;;;6.75;1.35;;;24.90;23.80;;;;;;5052099;28;20127;-70
2022/05/31 10:52:01;;;;;;;14.75;1.77;;;24.80;24.00;;;;;;5056018;28;20067;-69
2022/05/31 10:54:33;;;;;;;8.75;1.80;;;24.80;23.60;;;;;;5070022;28;20072;-70
2022/05/31 10:57:31;;;;;;;5.68;1.30;;;24.70;24.40;;;;;;5070326;28;20119;-70
2022/05/31 11:00:34;;;;;;;5.03;1.60;;;24.70;24.80;;;;;;5072111;28;20068;-70
2022/05/31 11:03:38;;;;;;;7.57;1.65;;;24.40;25.00;;;;;;5074612;28;20548;-69
2022/05/31 11:06:28;;;;;;;5.40;1.50;;;24.30;24.70;;;;;;5075009;28;20099;-69
2022/05/31 11:12:39;;;;;;;6.35;1.20;;;24.20;25.50;;;;;;5074615;28;21391;-71
2022/05/31 11:15:10;;;;;;;8.48;2.10;;;24.10;25.70;;;;;;5074095;28;20165;-70
2022/05/31 11:18:14;;;;;;;10.15;2.30;;;24.00;25.80;;;;;;5075066;28;20096;-71
2022/05/31 11:21:00;;;;;;;8.10;2.00;;;24.00;26.10;;;;;;5072321;28;20597;-70
2022/05/31 11:23:41;;;;;;;9.07;2.03;;;23.80;25.80;;;;;;5075545;28;20529;-70
2022/05/31 11:26:19;;;;;;;5.65;2.05;;;23.80;26.50;;;;;;5073484;28;20139;-71
2022/05/31 11:29:01;;;;;;;10.30;2.20;;;23.80;26.60;;;;;;5077211;28;20072;-71
2022/05/31 11:31:30;;;;;;;14.30;2.10;;;23.80;26.80;;;;;;5077469;28;20167;-70
2022/05/31 11:34:25;;;;;;;9.52;2.30;;;23.70;26.80;;;;;;5073580;28;20505;-71
2022/05/31 11:37:12;;;;;;;10.98;2.15;;;23.70;27.30;;;;;;5072840;28;20137;-71
2022/05/31 11:39:54;;;;;;;7.25;1.70;;;23.60;26.80;;;;;;5073680;28;20521;-72
2022/05/31 11:42:39;;;;;;;10.57;2.67;;;23.50;27.30;;;;;;5072574;28;20576;-70
2022/05/31 11:45:24;;;;;;;13.95;2.58;;;23.50;27.10;;;;;;5074183;28;20101;-70
2022/05/31 11:47:56;;;;;;;14.20;3.53;;;23.50;27.50;;;;;;5074784;28;20068;-69
2022/05/31 11:50:30;;;;;;;15.38;3.13;;;23.50;27.00;;;;;;5071443;28;20530;-72
2022/05/31 11:53:26;;;;;;;15.98;2.95;;;23.50;27.30;;;;;;5073545;22;20123;-71
2022/05/31 11:56:01;;;;;;;16.58;3.33;;;23.50;27.90;;;;;;5054213;28;20076;-70
2022/05/31 11:58:46;;;;;;;22.83;3.70;;;23.40;27.20;;;;;;5055438;28;20170;-71
2022/05/31 12:01:24;;;;;;;20.13;3.80;;;23.30;27.00;;;;;;5050236;28;21598;-71
2022/05/31 12:03:58;;;;;;;16.00;4.22;;;23.30;27.30;;;;;;5053169;28;20179;-71
2022/05/31 12:06:49;;;;;;;21.40;4.88;;;23.30;27.30;;;;;;5053595;28;20118;-73
2022/05/31 12:09:27;;;;;;;22.17;6.13;;;23.20;27.70;;;;;;5048802;28;20526;-71
2022/05/31 12:12:30;;;;;;;27.35;5.35;;;23.10;28.30;;;;;;5054432;28;20084;-70
2022/05/31 12:15:11;;;;;;;31.05;5.60;;;22.90;28.70;;;;;;5054117;28;20154;-67
2022/05/31 12:18:06;;;;;;;29.08;5.55;;;23.00;29.70;;;;;;5052888;28;20100;-70
2022/05/31 12:20:40;;;;;;;26.83;5.65;;;23.00;30.10;;;;;;5048976;28;20084;-69
2022/05/31 12:23:21;;;;;;;38.92;6.22;;;23.00;30.30;;;;;;5046294;28;20072;-72
2022/05/31 12:25:52;;;;;;;29.65;6.35;;;23.00;31.30;;;;;;5047081;28;20577;-69
2022/05/31 12:28:45;;;;;;;25.23;6.70;;;23.00;31.90;;;;;;5063388;28;20090;-69
2022/05/31 12:31:19;;;;;;;32.25;7.82;;;23.00;32.70;;;;;;5049633;28;20085;-69
2022/05/31 12:33:49;;;;;;;34.15;7.47;;;23.10;33.90;;;;;;5043884;28;20084;-69
2022/05/31 12:36:21;;;;;;;34.65;6.97;;;23.00;33.90;;;;;;5043598;28;20195;-70
2022/05/31 12:39:06;;;;;;;29.27;6.88;;;22.90;34.50;;;;;;5045143;28;20179;-70
2022/05/31 12:41:42;;;;;;;20.98;6.40;;;23.00;35.00;;;;;;5046101;28;20095;-69
2022/05/31 12:44:27;;;;;;;25.17;6.10;;;23.00;36.00;;;;;;5063393;28;20072;-69
2022/05/31 12:46:55;;;;;;;23.65;5.50;;;23.00;37.10;;;;;;5044701;28;20100;-70
2022/05/31 12:49:28;;;;;;;20.92;6.43;;;22.90;37.20;;;;;;5049634;28;20550;-69
2022/05/31 12:52:12;;;;;;;17.75;5.00;;;22.80;38.10;;;;;;5049405;28;20434;-70
2022/05/31 12:54:56;;;;;;;23.15;5.82;;;22.70;38.90;;;;;;5047469;28;20496;-69
2022/05/31 13:00:34;;;;;;;28.65;6.13;;;22.80;39.50;;;;;;5048953;28;20075;-68
2022/05/31 13:03:24;;;;;;;35.17;9.23;;;22.80;40.10;;;;;;5046879;28;20072;-68
2022/05/31 13:06:09;;;;;;;32.08;9.65;;;22.70;41.40;;;;;;5046927;28;20329;-69
2022/05/31 13:19:51;;;;;;;34.95;6.35;;;22.70;41.90;;;;;;5046521;28;20561;-68
2022/05/31 13:22:19;;;;;;;23.98;6.13;;;22.70;41.90;;;;;;5046931;28;20142;-69
2022/05/31 13:25:01;;;;;;;39.42;7.13;;;22.60;41.20;;;;;;5045625;28;20167;-69
2022/05/31 13:27:31;;;;;;;41.78;6.13;;;22.70;40.40;;;;;;5045739;28;20076;-70
2022/05/31 13:30:09;;;;;;;37.30;5.50;;;22.60;40.30;;;;;;5046829;28;20138;-70
2022/05/31 13:32:36;;;;;;;28.35;5.10;;;22.90;41.30;;;;;;5043114;28;20076;-69
2022/05/31 13:35:29;;;;;;;26.95;4.95;;;22.90;41.30;;;;;;5047708;28;20167;-71
2022/05/31 13:38:02;;;;;;;29.00;5.43;;;22.90;41.60;;;;;;5042458;28;20095;-71
2022/05/31 13:40:51;;;;;;;30.65;5.00;;;22.90;42.70;;;;;;5041882;28;20091;-68
2022/05/31 13:43:29;;;;;;;53.20;6.10;;;22.90;42.70;;;;;;5045321;28;20415;-69
2022/05/31 13:46:03;;;;;;;32.17;5.53;;;23.00;42.30;;;;;;5046996;28;20163;-70
2022/05/31 13:48:38;;;;;;;40.90;5.90;;;23.10;42.00;;;;;;5047315;28;20072;-70